sensor_id;sensor_type;location;lat;lon;timestamp;P1;durP1;ratioP1;P2;durP2;ratioP2
40150;SDS011;25866;52.420;10.640;2023-04-06T00:01:32;5.70;;;3.00;;
40150;SDS011;25866;52.420;10.640;2023-04-06T00:03:57;5.67;;;3.97;;
40150;SDS011;25866;52.420;10.640;2023-04-06T00:06:23;6.57;;;3.10;;
40150;SDS011;25866;52.420;10.640;2023-04-06T00:08:48;4.23;;;2.73;;
40150;SDS011;25866;52.420;10.640;2023-04-06T00:11:14;4.30;;;2.83;;
40150;SDS011;25866;52.420;10.640;2023-04-06T00:13:41;4.80;;;3.40;;
40150;SDS011;25866;52.420;10.640;2023-04-06T00:16:07;4.90;;;2.90;;
40150;SDS011;25866;52.420;10.640;2023-04-06T00:18:33;5.57;;;3.00;;
40150;SDS011;25866;52.420;10.640;2023-04-06T00:20:58;4.50;;;3.00;;
40150;SDS011;25866;52.420;10.640;2023-04-06T00:23:24;3.57;;;2.73;;
40150;SDS011;25866;52.420;10.640;2023-04-06T00:25:50;6.63;;;3.07;;
40150;SDS011;25866;52.420;10.640;2023-04-06T00:28:15;3.97;;;2.90;;
40150;SDS011;25866;52.420;10.640;2023-04-06T00:30:42;4.87;;;3.00;;
40150;SDS011;25866;52.420;10.640;2023-04-06T00:33:08;4.73;;;2.90;;
40150;SDS011;25866;52.420;10.640;2023-04-06T00:35:33;5.23;;;3.17;;
40150;SDS011;25866;52.420;10.640;2023-04-06T00:38:00;4.80;;;3.10;;
40150;SDS011;25866;52.420;10.640;2023-04-06T00:40:25;4.70;;;2.97;;
40150;SDS011;25866;52.420;10.640;2023-04-06T00:42:53;4.00;;;2.90;;
40150;SDS011;25866;52.420;10.640;2023-04-06T00:45:19;5.63;;;3.00;;
40150;SDS011;25866;52.420;10.640;2023-04-06T00:47:45;3.60;;;2.60;;
40150;SDS011;25866;52.420;10.640;2023-04-06T00:50:11;4.20;;;2.70;;
40150;SDS011;25866;52.420;10.640;2023-04-06T00:52:37;6.20;;;2.80;;
40150;SDS011;25866;52.420;10.640;2023-04-06T00:55:03;4.77;;;3.00;;
40150;SDS011;25866;52.420;10.640;2023-04-06T00:57:29;4.57;;;2.93;;
40150;SDS011;25866;52.420;10.640;2023-04-06T00:59:56;5.97;;;3.20;;
40150;SDS011;25866;52.420;10.640;2023-04-06T01:02:23;5.40;;;2.90;;
40150;SDS011;25866;52.420;10.640;2023-04-06T01:04:49;5.53;;;3.17;;
40150;SDS011;25866;52.420;10.640;2023-04-06T01:07:15;6.30;;;3.33;;
40150;SDS011;25866;52.420;10.640;2023-04-06T01:09:41;5.67;;;2.80;;
40150;SDS011;25866;52.420;10.640;2023-04-06T01:12:06;9.43;;;3.10;;
40150;SDS011;25866;52.420;10.640;2023-04-06T01:14:32;7.17;;;2.83;;
40150;SDS011;25866;52.420;10.640;2023-04-06T01:16:58;5.33;;;2.80;;
40150;SDS011;25866;52.420;10.640;2023-04-06T01:19:25;4.63;;;2.83;;
40150;SDS011;25866;52.420;10.640;2023-04-06T01:21:51;5.53;;;3.17;;
40150;SDS011;25866;52.420;10.640;2023-04-06T01:24:18;6.07;;;3.03;;
40150;SDS011;25866;52.420;10.640;2023-04-06T01:26:44;5.20;;;2.87;;
40150;SDS011;25866;52.420;10.640;2023-04-06T01:29:10;4.97;;;2.90;;
40150;SDS011;25866;52.420;10.640;2023-04-06T01:31:39;7.73;;;2.90;;
40150;SDS011;25866;52.420;10.640;2023-04-06T01:34:05;4.83;;;3.30;;
40150;SDS011;25866;52.420;10.640;2023-04-06T01:36:31;4.70;;;2.73;;
40150;SDS011;25866;52.420;10.640;2023-04-06T01:38:56;4.17;;;2.70;;
40150;SDS011;25866;52.420;10.640;2023-04-06T01:41:22;5.30;;;3.30;;
40150;SDS011;25866;52.420;10.640;2023-04-06T01:43:49;4.43;;;3.27;;
40150;SDS011;25866;52.420;10.640;2023-04-06T01:46:15;3.80;;;2.80;;
40150;SDS011;25866;52.420;10.640;2023-04-06T01:48:41;8.07;;;2.97;;
40150;SDS011;25866;52.420;10.640;2023-04-06T01:51:06;4.80;;;3.20;;
40150;SDS011;25866;52.420;10.640;2023-04-06T01:53:34;4.53;;;3.17;;
40150;SDS011;25866;52.420;10.640;2023-04-06T01:56:00;5.37;;;3.20;;
40150;SDS011;25866;52.420;10.640;2023-04-06T01:58:26;4.30;;;3.13;;
40150;SDS011;25866;52.420;10.640;2023-04-06T02:00:51;6.90;;;3.30;;
40150;SDS011;25866;52.420;10.640;2023-04-06T02:03:25;6.63;;;3.03;;
40150;SDS011;25866;52.420;10.640;2023-04-06T02:05:50;5.63;;;2.93;;
40150;SDS011;25866;52.420;10.640;2023-04-06T02:08:16;4.30;;;2.63;;
40150;SDS011;25866;52.420;10.640;2023-04-06T02:10:42;5.60;;;2.87;;
40150;SDS011;25866;52.420;10.640;2023-04-06T02:13:07;5.00;;;3.07;;
40150;SDS011;25866;52.420;10.640;2023-04-06T02:15:33;4.33;;;2.93;;
40150;SDS011;25866;52.420;10.640;2023-04-06T02:17:59;6.30;;;3.07;;
40150;SDS011;25866;52.420;10.640;2023-04-06T02:20:25;5.47;;;3.07;;
40150;SDS011;25866;52.420;10.640;2023-04-06T02:22:52;4.83;;;2.70;;
40150;SDS011;25866;52.420;10.640;2023-04-06T02:25:17;3.93;;;2.90;;
40150;SDS011;25866;52.420;10.640;2023-04-06T02:27:43;5.83;;;3.40;;
40150;SDS011;25866;52.420;10.640;2023-04-06T02:30:09;5.43;;;3.50;;
40150;SDS011;25866;52.420;10.640;2023-04-06T02:32:35;6.20;;;3.13;;
40150;SDS011;25866;52.420;10.640;2023-04-06T02:35:01;7.43;;;3.60;;
40150;SDS011;25866;52.420;10.640;2023-04-06T02:37:27;5.97;;;3.23;;
40150;SDS011;25866;52.420;10.640;2023-04-06T02:39:52;6.70;;;3.43;;
40150;SDS011;25866;52.420;10.640;2023-04-06T02:42:22;4.63;;;2.87;;
40150;SDS011;25866;52.420;10.640;2023-04-06T02:44:48;5.37;;;3.47;;
40150;SDS011;25866;52.420;10.640;2023-04-06T02:47:13;5.00;;;3.30;;
40150;SDS011;25866;52.420;10.640;2023-04-06T02:49:39;8.93;;;3.47;;
40150;SDS011;25866;52.420;10.640;2023-04-06T02:52:12;6.07;;;3.27;;
40150;SDS011;25866;52.420;10.640;2023-04-06T02:54:38;6.13;;;3.00;;
40150;SDS011;25866;52.420;10.640;2023-04-06T02:57:04;7.17;;;3.00;;
40150;SDS011;25866;52.420;10.640;2023-04-06T02:59:30;4.27;;;3.27;;
40150;SDS011;25866;52.420;10.640;2023-04-06T03:01:56;6.53;;;3.50;;
40150;SDS011;25866;52.420;10.640;2023-04-06T03:04:22;5.67;;;3.70;;
40150;SDS011;25866;52.420;10.640;2023-04-06T03:06:50;5.40;;;3.43;;
40150;SDS011;25866;52.420;10.640;2023-04-06T03:09:16;4.63;;;3.63;;
40150;SDS011;25866;52.420;10.640;2023-04-06T03:11:42;6.00;;;3.77;;
40150;SDS011;25866;52.420;10.640;2023-04-06T03:14:08;8.37;;;3.50;;
40150;SDS011;25866;52.420;10.640;2023-04-06T03:16:34;7.07;;;3.63;;
40150;SDS011;25866;52.420;10.640;2023-04-06T03:19:00;5.17;;;3.50;;
40150;SDS011;25866;52.420;10.640;2023-04-06T03:21:26;6.10;;;3.40;;
40150;SDS011;25866;52.420;10.640;2023-04-06T03:26:22;5.07;;;3.33;;
40150;SDS011;25866;52.420;10.640;2023-04-06T03:28:47;4.60;;;3.33;;
40150;SDS011;25866;52.420;10.640;2023-04-06T03:31:13;6.87;;;3.50;;
40150;SDS011;25866;52.420;10.640;2023-04-06T03:33:45;6.07;;;3.57;;
40150;SDS011;25866;52.420;10.640;2023-04-06T03:36:10;6.57;;;4.10;;
40150;SDS011;25866;52.420;10.640;2023-04-06T03:38:36;5.13;;;3.37;;
40150;SDS011;25866;52.420;10.640;2023-04-06T03:41:02;7.03;;;3.60;;
40150;SDS011;25866;52.420;10.640;2023-04-06T03:45:56;5.37;;;3.70;;
40150;SDS011;25866;52.420;10.640;2023-04-06T03:48:22;5.73;;;3.70;;
40150;SDS011;25866;52.420;10.640;2023-04-06T03:50:47;6.33;;;3.73;;
40150;SDS011;25866;52.420;10.640;2023-04-06T03:53:15;6.97;;;3.77;;
40150;SDS011;25866;52.420;10.640;2023-04-06T03:55:41;6.47;;;3.63;;
40150;SDS011;25866;52.420;10.640;2023-04-06T03:58:06;5.83;;;3.40;;
40150;SDS011;25866;52.420;10.640;2023-04-06T04:00:32;5.13;;;3.67;;
40150;SDS011;25866;52.420;10.640;2023-04-06T04:02:58;7.73;;;3.90;;
40150;SDS011;25866;52.420;10.640;2023-04-06T04:05:24;6.23;;;4.03;;
40150;SDS011;25866;52.420;10.640;2023-04-06T04:07:50;7.43;;;3.80;;
40150;SDS011;25866;52.420;10.640;2023-04-06T04:10:17;5.67;;;3.47;;
40150;SDS011;25866;52.420;10.640;2023-04-06T04:12:42;4.90;;;3.70;;
40150;SDS011;25866;52.420;10.640;2023-04-06T04:15:08;8.10;;;3.90;;
40150;SDS011;25866;52.420;10.640;2023-04-06T04:17:34;6.80;;;4.43;;
40150;SDS011;25866;52.420;10.640;2023-04-06T04:20:00;8.33;;;4.77;;
40150;SDS011;25866;52.420;10.640;2023-04-06T04:22:25;5.33;;;3.93;;
40150;SDS011;25866;52.420;10.640;2023-04-06T04:24:53;5.70;;;3.90;;
40150;SDS011;25866;52.420;10.640;2023-04-06T04:27:19;6.90;;;4.17;;
40150;SDS011;25866;52.420;10.640;2023-04-06T04:29:45;6.80;;;3.90;;
40150;SDS011;25866;52.420;10.640;2023-04-06T04:32:11;7.67;;;4.20;;
40150;SDS011;25866;52.420;10.640;2023-04-06T04:34:48;6.40;;;4.20;;
40150;SDS011;25866;52.420;10.640;2023-04-06T04:37:14;4.70;;;3.60;;
40150;SDS011;25866;52.420;10.640;2023-04-06T04:39:39;7.17;;;4.10;;
40150;SDS011;25866;52.420;10.640;2023-04-06T04:42:05;8.87;;;3.87;;
40150;SDS011;25866;52.420;10.640;2023-04-06T04:44:33;6.03;;;3.90;;
40150;SDS011;25866;52.420;10.640;2023-04-06T04:46:58;10.93;;;4.37;;
40150;SDS011;25866;52.420;10.640;2023-04-06T04:49:24;4.97;;;4.03;;
40150;SDS011;25866;52.420;10.640;2023-04-06T04:51:50;8.77;;;4.37;;
40150;SDS011;25866;52.420;10.640;2023-04-06T04:54:19;9.73;;;4.53;;
40150;SDS011;25866;52.420;10.640;2023-04-06T04:56:45;8.37;;;4.13;;
40150;SDS011;25866;52.420;10.640;2023-04-06T04:59:10;6.67;;;4.30;;
40150;SDS011;25866;52.420;10.640;2023-04-06T05:01:36;7.30;;;3.90;;
40150;SDS011;25866;52.420;10.640;2023-04-06T05:04:04;4.63;;;3.50;;
40150;SDS011;25866;52.420;10.640;2023-04-06T05:06:30;5.30;;;3.73;;
40150;SDS011;25866;52.420;10.640;2023-04-06T05:08:56;6.33;;;4.20;;
40150;SDS011;25866;52.420;10.640;2023-04-06T05:11:21;6.73;;;4.13;;
40150;SDS011;25866;52.420;10.640;2023-04-06T05:13:48;6.03;;;3.83;;
40150;SDS011;25866;52.420;10.640;2023-04-06T05:16:14;5.73;;;3.73;;
40150;SDS011;25866;52.420;10.640;2023-04-06T05:18:40;6.27;;;3.73;;
40150;SDS011;25866;52.420;10.640;2023-04-06T05:21:05;5.77;;;3.43;;
40150;SDS011;25866;52.420;10.640;2023-04-06T05:23:31;6.57;;;3.87;;
40150;SDS011;25866;52.420;10.640;2023-04-06T05:25:57;7.07;;;3.90;;
40150;SDS011;25866;52.420;10.640;2023-04-06T05:28:22;7.43;;;4.10;;
40150;SDS011;25866;52.420;10.640;2023-04-06T05:30:48;6.47;;;3.77;;
40150;SDS011;25866;52.420;10.640;2023-04-06T05:33:14;9.23;;;4.20;;
40150;SDS011;25866;52.420;10.640;2023-04-06T05:35:43;5.37;;;3.73;;
40150;SDS011;25866;52.420;10.640;2023-04-06T05:38:09;4.60;;;3.33;;
40150;SDS011;25866;52.420;10.640;2023-04-06T05:40:35;8.90;;;4.13;;
40150;SDS011;25866;52.420;10.640;2023-04-06T05:43:02;5.97;;;3.93;;
40150;SDS011;25866;52.420;10.640;2023-04-06T05:45:28;5.43;;;3.87;;
40150;SDS011;25866;52.420;10.640;2023-04-06T05:47:55;7.70;;;4.43;;
40150;SDS011;25866;52.420;10.640;2023-04-06T05:50:20;8.37;;;4.23;;
40150;SDS011;25866;52.420;10.640;2023-04-06T05:52:47;7.07;;;4.10;;
40150;SDS011;25866;52.420;10.640;2023-04-06T05:55:15;8.07;;;5.00;;
40150;SDS011;25866;52.420;10.640;2023-04-06T05:57:40;7.57;;;4.97;;
40150;SDS011;25866;52.420;10.640;2023-04-06T06:00:06;6.03;;;4.20;;
40150;SDS011;25866;52.420;10.640;2023-04-06T06:02:34;8.37;;;4.97;;
40150;SDS011;25866;52.420;10.640;2023-04-06T06:05:00;6.97;;;4.50;;
40150;SDS011;25866;52.420;10.640;2023-04-06T06:07:26;6.70;;;4.47;;
40150;SDS011;25866;52.420;10.640;2023-04-06T06:09:52;6.67;;;4.60;;
40150;SDS011;25866;52.420;10.640;2023-04-06T06:12:18;8.63;;;4.83;;
40150;SDS011;25866;52.420;10.640;2023-04-06T06:14:53;10.07;;;5.23;;
40150;SDS011;25866;52.420;10.640;2023-04-06T06:17:20;7.50;;;4.93;;
40150;SDS011;25866;52.420;10.640;2023-04-06T06:19:45;8.70;;;5.13;;
40150;SDS011;25866;52.420;10.640;2023-04-06T06:22:12;9.07;;;5.70;;
40150;SDS011;25866;52.420;10.640;2023-04-06T06:27:09;6.97;;;5.40;;
40150;SDS011;25866;52.420;10.640;2023-04-06T06:29:35;9.67;;;4.97;;
40150;SDS011;25866;52.420;10.640;2023-04-06T06:32:01;10.60;;;5.23;;
40150;SDS011;25866;52.420;10.640;2023-04-06T06:34:26;9.37;;;5.53;;
40150;SDS011;25866;52.420;10.640;2023-04-06T06:36:52;7.73;;;5.30;;
40150;SDS011;25866;52.420;10.640;2023-04-06T06:39:20;20.57;;;5.63;;
40150;SDS011;25866;52.420;10.640;2023-04-06T06:41:46;10.27;;;5.10;;
40150;SDS011;25866;52.420;10.640;2023-04-06T06:44:11;12.43;;;4.97;;
40150;SDS011;25866;52.420;10.640;2023-04-06T06:46:37;6.00;;;4.30;;
40150;SDS011;25866;52.420;10.640;2023-04-06T06:49:03;6.50;;;4.73;;
40150;SDS011;25866;52.420;10.640;2023-04-06T06:51:28;8.83;;;4.87;;
40150;SDS011;25866;52.420;10.640;2023-04-06T06:53:54;7.20;;;4.63;;
40150;SDS011;25866;52.420;10.640;2023-04-06T06:56:20;5.63;;;4.60;;
40150;SDS011;25866;52.420;10.640;2023-04-06T06:58:45;5.23;;;4.50;;
40150;SDS011;25866;52.420;10.640;2023-04-06T07:01:11;8.10;;;4.80;;
40150;SDS011;25866;52.420;10.640;2023-04-06T07:03:36;6.07;;;4.80;;
40150;SDS011;25866;52.420;10.640;2023-04-06T07:06:02;6.60;;;4.43;;
40150;SDS011;25866;52.420;10.640;2023-04-06T07:08:28;7.07;;;4.57;;
40150;SDS011;25866;52.420;10.640;2023-04-06T07:10:54;6.33;;;4.17;;
40150;SDS011;25866;52.420;10.640;2023-04-06T07:13:21;6.63;;;4.30;;
40150;SDS011;25866;52.420;10.640;2023-04-06T07:15:50;5.97;;;4.47;;
40150;SDS011;25866;52.420;10.640;2023-04-06T07:18:16;6.93;;;4.37;;
40150;SDS011;25866;52.420;10.640;2023-04-06T07:20:43;5.20;;;4.13;;
40150;SDS011;25866;52.420;10.640;2023-04-06T07:23:09;8.90;;;3.80;;
40150;SDS011;25866;52.420;10.640;2023-04-06T07:25:35;13.00;;;3.90;;
40150;SDS011;25866;52.420;10.640;2023-04-06T07:28:01;10.73;;;4.10;;
40150;SDS011;25866;52.420;10.640;2023-04-06T07:30:27;8.60;;;4.07;;
40150;SDS011;25866;52.420;10.640;2023-04-06T07:32:54;13.23;;;4.43;;
40150;SDS011;25866;52.420;10.640;2023-04-06T07:35:24;10.47;;;4.37;;
40150;SDS011;25866;52.420;10.640;2023-04-06T07:37:51;11.33;;;4.60;;
40150;SDS011;25866;52.420;10.640;2023-04-06T07:40:17;8.03;;;4.00;;
40150;SDS011;25866;52.420;10.640;2023-04-06T07:42:44;5.70;;;4.57;;
40150;SDS011;25866;52.420;10.640;2023-04-06T07:45:10;6.80;;;4.10;;
40150;SDS011;25866;52.420;10.640;2023-04-06T07:47:36;6.70;;;4.37;;
40150;SDS011;25866;52.420;10.640;2023-04-06T07:50:02;9.23;;;4.40;;
40150;SDS011;25866;52.420;10.640;2023-04-06T07:52:27;8.87;;;4.80;;
40150;SDS011;25866;52.420;10.640;2023-04-06T07:54:53;7.03;;;4.10;;
40150;SDS011;25866;52.420;10.640;2023-04-06T07:57:19;6.17;;;4.10;;
40150;SDS011;25866;52.420;10.640;2023-04-06T07:59:45;6.03;;;4.43;;
40150;SDS011;25866;52.420;10.640;2023-04-06T08:02:10;6.20;;;4.13;;
40150;SDS011;25866;52.420;10.640;2023-04-06T08:04:36;5.90;;;4.20;;
40150;SDS011;25866;52.420;10.640;2023-04-06T08:07:02;6.73;;;4.37;;
40150;SDS011;25866;52.420;10.640;2023-04-06T08:09:27;9.83;;;4.60;;
40150;SDS011;25866;52.420;10.640;2023-04-06T08:11:53;6.77;;;4.37;;
40150;SDS011;25866;52.420;10.640;2023-04-06T08:14:19;8.27;;;4.73;;
40150;SDS011;25866;52.420;10.640;2023-04-06T08:16:45;7.00;;;4.63;;
40150;SDS011;25866;52.420;10.640;2023-04-06T08:19:11;9.00;;;4.77;;
40150;SDS011;25866;52.420;10.640;2023-04-06T08:21:37;6.60;;;4.67;;
40150;SDS011;25866;52.420;10.640;2023-04-06T08:24:03;7.93;;;4.77;;
40150;SDS011;25866;52.420;10.640;2023-04-06T08:26:30;7.40;;;4.77;;
40150;SDS011;25866;52.420;10.640;2023-04-06T08:28:56;5.93;;;4.57;;
40150;SDS011;25866;52.420;10.640;2023-04-06T08:31:21;6.00;;;4.60;;
40150;SDS011;25866;52.420;10.640;2023-04-06T08:33:47;7.27;;;4.80;;
40150;SDS011;25866;52.420;10.640;2023-04-06T08:36:13;9.37;;;5.00;;
40150;SDS011;25866;52.420;10.640;2023-04-06T08:38:40;7.60;;;5.10;;
40150;SDS011;25866;52.420;10.640;2023-04-06T08:41:12;7.53;;;4.53;;
40150;SDS011;25866;52.420;10.640;2023-04-06T08:43:41;6.37;;;4.70;;
40150;SDS011;25866;52.420;10.640;2023-04-06T08:46:23;6.00;;;4.00;;
40150;SDS011;25866;52.420;10.640;2023-04-06T08:48:55;5.70;;;4.03;;
40150;SDS011;25866;52.420;10.640;2023-04-06T08:51:25;7.60;;;4.23;;
40150;SDS011;25866;52.420;10.640;2023-04-06T08:53:55;7.17;;;4.60;;
40150;SDS011;25866;52.420;10.640;2023-04-06T08:56:23;7.47;;;5.30;;
40150;SDS011;25866;52.420;10.640;2023-04-06T08:58:50;8.53;;;4.57;;
40150;SDS011;25866;52.420;10.640;2023-04-06T09:01:18;7.37;;;4.97;;
40150;SDS011;25866;52.420;10.640;2023-04-06T09:03:47;7.80;;;4.63;;
40150;SDS011;25866;52.420;10.640;2023-04-06T09:06:14;9.40;;;5.10;;
40150;SDS011;25866;52.420;10.640;2023-04-06T09:08:40;6.43;;;4.18;;
40150;SDS011;25866;52.420;10.640;2023-04-06T09:11:06;6.67;;;4.63;;
40150;SDS011;25866;52.420;10.640;2023-04-06T09:13:46;6.63;;;3.90;;
40150;SDS011;25866;52.420;10.640;2023-04-06T09:16:13;8.27;;;4.53;;
40150;SDS011;25866;52.420;10.640;2023-04-06T09:18:40;7.60;;;4.30;;
40150;SDS011;25866;52.420;10.640;2023-04-06T09:21:06;6.85;;;4.45;;
40150;SDS011;25866;52.420;10.640;2023-04-06T09:23:33;6.05;;;4.40;;
40150;SDS011;25866;52.420;10.640;2023-04-06T09:26:05;5.97;;;4.53;;
40150;SDS011;25866;52.420;10.640;2023-04-06T09:31:31;8.70;;;4.72;;
40150;SDS011;25866;52.420;10.640;2023-04-06T09:34:00;8.20;;;4.22;;
40150;SDS011;25866;52.420;10.640;2023-04-06T09:36:33;6.93;;;4.30;;
40150;SDS011;25866;52.420;10.640;2023-04-06T09:39:03;7.32;;;4.70;;
40150;SDS011;25866;52.420;10.640;2023-04-06T09:41:30;5.88;;;4.10;;
40150;SDS011;25866;52.420;10.640;2023-04-06T09:44:06;5.93;;;4.03;;
40150;SDS011;25866;52.420;10.640;2023-04-06T09:49:08;6.57;;;4.60;;
40150;SDS011;25866;52.420;10.640;2023-04-06T09:51:49;7.00;;;4.97;;
40150;SDS011;25866;52.420;10.640;2023-04-06T09:54:21;6.63;;;4.45;;
40150;SDS011;25866;52.420;10.640;2023-04-06T09:56:50;7.68;;;4.70;;
40150;SDS011;25866;52.420;10.640;2023-04-06T10:01:53;6.13;;;4.60;;
40150;SDS011;25866;52.420;10.640;2023-04-06T10:07:24;7.15;;;4.20;;
40150;SDS011;25866;52.420;10.640;2023-04-06T10:09:51;8.18;;;4.88;;
40150;SDS011;25866;52.420;10.640;2023-04-06T10:12:20;6.22;;;4.22;;
40150;SDS011;25866;52.420;10.640;2023-04-06T10:14:45;8.20;;;5.00;;
40150;SDS011;25866;52.420;10.640;2023-04-06T10:17:11;7.93;;;4.55;;
40150;SDS011;25866;52.420;10.640;2023-04-06T10:19:46;6.28;;;4.20;;
40150;SDS011;25866;52.420;10.640;2023-04-06T10:22:19;7.55;;;5.00;;
40150;SDS011;25866;52.420;10.640;2023-04-06T10:24:51;6.22;;;4.75;;
40150;SDS011;25866;52.420;10.640;2023-04-06T10:27:17;5.57;;;4.05;;
40150;SDS011;25866;52.420;10.640;2023-04-06T10:29:53;8.27;;;4.72;;
40150;SDS011;25866;52.420;10.640;2023-04-06T10:32:19;9.65;;;4.90;;
40150;SDS011;25866;52.420;10.640;2023-04-06T10:34:45;8.32;;;4.90;;
40150;SDS011;25866;52.420;10.640;2023-04-06T10:37:13;9.32;;;5.25;;
40150;SDS011;25866;52.420;10.640;2023-04-06T10:39:46;7.18;;;4.03;;
40150;SDS011;25866;52.420;10.640;2023-04-06T10:42:25;8.43;;;5.10;;
40150;SDS011;25866;52.420;10.640;2023-04-06T10:45:01;7.05;;;4.90;;
40150;SDS011;25866;52.420;10.640;2023-04-06T10:47:28;6.47;;;4.05;;
40150;SDS011;25866;52.420;10.640;2023-04-06T10:50:05;6.30;;;4.43;;
40150;SDS011;25866;52.420;10.640;2023-04-06T10:52:31;6.95;;;4.10;;
40150;SDS011;25866;52.420;10.640;2023-04-06T10:54:56;7.00;;;3.97;;
40150;SDS011;25866;52.420;10.640;2023-04-06T10:57:29;6.10;;;4.45;;
40150;SDS011;25866;52.420;10.640;2023-04-06T10:59:57;13.25;;;4.40;;
40150;SDS011;25866;52.420;10.640;2023-04-06T11:02:22;7.55;;;4.68;;
40150;SDS011;25866;52.420;10.640;2023-04-06T11:04:57;7.55;;;4.10;;
40150;SDS011;25866;52.420;10.640;2023-04-06T11:07:27;9.25;;;5.15;;
40150;SDS011;25866;52.420;10.640;2023-04-06T11:09:55;7.35;;;4.55;;
40150;SDS011;25866;52.420;10.640;2023-04-06T11:12:23;7.72;;;4.95;;
40150;SDS011;25866;52.420;10.640;2023-04-06T11:14:59;12.40;;;4.30;;
40150;SDS011;25866;52.420;10.640;2023-04-06T11:17:33;7.88;;;4.47;;
40150;SDS011;25866;52.420;10.640;2023-04-06T11:20:01;6.75;;;4.63;;
40150;SDS011;25866;52.420;10.640;2023-04-06T11:22:29;11.05;;;4.88;;
40150;SDS011;25866;52.420;10.640;2023-04-06T11:25:07;7.15;;;4.25;;
40150;SDS011;25866;52.420;10.640;2023-04-06T11:27:34;8.73;;;4.90;;
40150;SDS011;25866;52.420;10.640;2023-04-06T11:30:00;8.13;;;5.72;;
40150;SDS011;25866;52.420;10.640;2023-04-06T11:32:27;7.38;;;5.18;;
40150;SDS011;25866;52.420;10.640;2023-04-06T11:34:53;9.43;;;4.53;;
40150;SDS011;25866;52.420;10.640;2023-04-06T11:37:18;7.70;;;4.90;;
40150;SDS011;25866;52.420;10.640;2023-04-06T11:39:54;5.78;;;4.70;;
40150;SDS011;25866;52.420;10.640;2023-04-06T11:42:25;6.32;;;4.45;;
40150;SDS011;25866;52.420;10.640;2023-04-06T11:44:59;7.72;;;4.53;;
40150;SDS011;25866;52.420;10.640;2023-04-06T11:47:29;7.15;;;4.47;;
40150;SDS011;25866;52.420;10.640;2023-04-06T11:50:05;6.90;;;4.47;;
40150;SDS011;25866;52.420;10.640;2023-04-06T11:52:36;6.50;;;4.20;;
40150;SDS011;25866;52.420;10.640;2023-04-06T11:55:10;8.88;;;4.45;;
40150;SDS011;25866;52.420;10.640;2023-04-06T11:57:40;6.32;;;4.38;;
40150;SDS011;25866;52.420;10.640;2023-04-06T12:00:07;6.15;;;4.43;;
40150;SDS011;25866;52.420;10.640;2023-04-06T12:02:34;7.03;;;4.88;;
40150;SDS011;25866;52.420;10.640;2023-04-06T12:05:01;5.95;;;4.65;;
40150;SDS011;25866;52.420;10.640;2023-04-06T12:07:28;9.30;;;4.63;;
40150;SDS011;25866;52.420;10.640;2023-04-06T12:09:55;8.23;;;5.18;;
40150;SDS011;25866;52.420;10.640;2023-04-06T12:12:21;6.60;;;4.47;;
40150;SDS011;25866;52.420;10.640;2023-04-06T12:14:47;5.40;;;4.32;;
40150;SDS011;25866;52.420;10.640;2023-04-06T12:17:12;8.60;;;4.60;;
40150;SDS011;25866;52.420;10.640;2023-04-06T12:19:38;6.65;;;4.68;;
40150;SDS011;25866;52.420;10.640;2023-04-06T12:22:04;7.78;;;4.93;;
40150;SDS011;25866;52.420;10.640;2023-04-06T12:24:30;5.55;;;4.70;;
40150;SDS011;25866;52.420;10.640;2023-04-06T12:26:55;5.85;;;4.60;;
40150;SDS011;25866;52.420;10.640;2023-04-06T12:29:22;7.72;;;4.35;;
40150;SDS011;25866;52.420;10.640;2023-04-06T12:31:49;5.38;;;4.65;;
40150;SDS011;25866;52.420;10.640;2023-04-06T12:34:16;7.50;;;4.78;;
40150;SDS011;25866;52.420;10.640;2023-04-06T12:36:41;6.65;;;4.50;;
40150;SDS011;25866;52.420;10.640;2023-04-06T12:39:07;8.30;;;5.22;;
40150;SDS011;25866;52.420;10.640;2023-04-06T12:41:33;8.52;;;5.18;;
40150;SDS011;25866;52.420;10.640;2023-04-06T12:43:59;7.03;;;5.15;;
40150;SDS011;25866;52.420;10.640;2023-04-06T12:46:25;7.00;;;5.13;;
40150;SDS011;25866;52.420;10.640;2023-04-06T12:48:52;7.43;;;5.03;;
40150;SDS011;25866;52.420;10.640;2023-04-06T12:51:21;7.95;;;5.47;;
40150;SDS011;25866;52.420;10.640;2023-04-06T12:53:47;8.15;;;5.05;;
40150;SDS011;25866;52.420;10.640;2023-04-06T12:56:15;8.85;;;5.57;;
40150;SDS011;25866;52.420;10.640;2023-04-06T12:58:42;7.63;;;5.63;;
40150;SDS011;25866;52.420;10.640;2023-04-06T13:01:08;8.18;;;5.45;;
40150;SDS011;25866;52.420;10.640;2023-04-06T13:03:35;6.82;;;4.75;;
40150;SDS011;25866;52.420;10.640;2023-04-06T13:06:01;7.00;;;5.05;;
40150;SDS011;25866;52.420;10.640;2023-04-06T13:08:27;9.07;;;5.28;;
40150;SDS011;25866;52.420;10.640;2023-04-06T13:10:53;7.70;;;5.50;;
40150;SDS011;25866;52.420;10.640;2023-04-06T13:13:23;7.00;;;4.90;;
40150;SDS011;25866;52.420;10.640;2023-04-06T13:15:50;10.05;;;6.10;;
40150;SDS011;25866;52.420;10.640;2023-04-06T13:18:16;8.30;;;5.80;;
40150;SDS011;25866;52.420;10.640;2023-04-06T13:20:42;7.38;;;6.05;;
40150;SDS011;25866;52.420;10.640;2023-04-06T13:23:08;9.02;;;6.18;;
40150;SDS011;25866;52.420;10.640;2023-04-06T13:25:34;9.95;;;6.25;;
40150;SDS011;25866;52.420;10.640;2023-04-06T13:27:59;11.20;;;6.07;;
40150;SDS011;25866;52.420;10.640;2023-04-06T13:30:25;8.55;;;6.35;;
40150;SDS011;25866;52.420;10.640;2023-04-06T13:32:51;11.05;;;5.88;;
40150;SDS011;25866;52.420;10.640;2023-04-06T13:35:17;7.47;;;5.32;;
40150;SDS011;25866;52.420;10.640;2023-04-06T13:37:43;7.03;;;5.10;;
40150;SDS011;25866;52.420;10.640;2023-04-06T13:40:09;6.78;;;5.18;;
40150;SDS011;25866;52.420;10.640;2023-04-06T13:42:35;8.82;;;5.40;;
40150;SDS011;25866;52.420;10.640;2023-04-06T13:45:03;12.02;;;5.30;;
40150;SDS011;25866;52.420;10.640;2023-04-06T13:47:29;9.98;;;6.10;;
40150;SDS011;25866;52.420;10.640;2023-04-06T13:49:55;7.32;;;5.57;;
40150;SDS011;25866;52.420;10.640;2023-04-06T13:52:21;7.38;;;5.80;;
40150;SDS011;25866;52.420;10.640;2023-04-06T13:54:48;8.93;;;5.90;;
40150;SDS011;25866;52.420;10.640;2023-04-06T13:57:14;9.82;;;5.95;;
40150;SDS011;25866;52.420;10.640;2023-04-06T13:59:40;5.88;;;4.47;;
40150;SDS011;25866;52.420;10.640;2023-04-06T14:02:06;9.13;;;4.88;;
40150;SDS011;25866;52.420;10.640;2023-04-06T14:04:34;5.97;;;4.70;;
40150;SDS011;25866;52.420;10.640;2023-04-06T14:07:00;8.98;;;4.25;;
40150;SDS011;25866;52.420;10.640;2023-04-06T14:09:27;7.00;;;4.00;;
40150;SDS011;25866;52.420;10.640;2023-04-06T14:11:53;5.70;;;4.15;;
40150;SDS011;25866;52.420;10.640;2023-04-06T14:14:20;9.15;;;4.95;;
40150;SDS011;25866;52.420;10.640;2023-04-06T14:16:46;6.78;;;4.95;;
40150;SDS011;25866;52.420;10.640;2023-04-06T14:19:13;6.53;;;4.35;;
40150;SDS011;25866;52.420;10.640;2023-04-06T14:21:43;5.97;;;4.18;;
40150;SDS011;25866;52.420;10.640;2023-04-06T14:24:10;5.95;;;3.92;;
40150;SDS011;25866;52.420;10.640;2023-04-06T14:26:36;5.60;;;4.50;;
40150;SDS011;25866;52.420;10.640;2023-04-06T14:29:03;4.45;;;4.05;;
40150;SDS011;25866;52.420;10.640;2023-04-06T14:31:29;6.55;;;4.40;;
40150;SDS011;25866;52.420;10.640;2023-04-06T14:33:55;5.80;;;4.18;;
40150;SDS011;25866;52.420;10.640;2023-04-06T14:36:21;5.65;;;4.25;;
40150;SDS011;25866;52.420;10.640;2023-04-06T14:38:47;6.25;;;3.90;;
40150;SDS011;25866;52.420;10.640;2023-04-06T14:41:21;6.10;;;4.22;;
40150;SDS011;25866;52.420;10.640;2023-04-06T14:43:48;8.48;;;4.32;;
40150;SDS011;25866;52.420;10.640;2023-04-06T14:46:14;6.22;;;4.57;;
40150;SDS011;25866;52.420;10.640;2023-04-06T14:48:40;6.65;;;4.47;;
40150;SDS011;25866;52.420;10.640;2023-04-06T14:51:06;7.22;;;4.80;;